sensor_id;sensor_type;location;lat;lon;timestamp;temperature;humidity
6956;DHT22;50345;51.136;16.886;2023-11-21T00:01:54;8.80;99.90
6956;DHT22;50345;51.136;16.886;2023-11-21T00:04:19;8.80;99.90
6956;DHT22;50345;51.136;16.886;2023-11-21T00:06:45;8.80;99.90
6956;DHT22;50345;51.136;16.886;2023-11-21T00:09:12;8.80;99.90
6956;DHT22;50345;51.136;16.886;2023-11-21T00:11:38;8.80;99.90
6956;DHT22;50345;51.136;16.886;2023-11-21T00:14:04;8.80;99.90
6956;DHT22;50345;51.136;16.886;2023-11-21T00:16:30;8.80;99.90
6956;DHT22;50345;51.136;16.886;2023-11-21T00:18:55;8.80;99.90
6956;DHT22;50345;51.136;16.886;2023-11-21T00:21:21;8.80;99.90
6956;DHT22;50345;51.136;16.886;2023-11-21T00:23:46;8.80;99.90
6956;DHT22;50345;51.136;16.886;2023-11-21T00:26:12;8.80;99.90
6956;DHT22;50345;51.136;16.886;2023-11-21T00:28:37;8.80;99.90
6956;DHT22;50345;51.136;16.886;2023-11-21T00:31:03;8.80;99.90
6956;DHT22;50345;51.136;16.886;2023-11-21T00:33:29;8.80;99.90
6956;DHT22;50345;51.136;16.886;2023-11-21T00:35:55;8.80;99.90
6956;DHT22;50345;51.136;16.886;2023-11-21T00:38:20;8.80;99.90
6956;DHT22;50345;51.136;16.886;2023-11-21T00:40:46;8.80;99.90
6956;DHT22;50345;51.136;16.886;2023-11-21T00:43:12;8.80;99.90
6956;DHT22;50345;51.136;16.886;2023-11-21T00:45:37;8.80;99.90
6956;DHT22;50345;51.136;16.886;2023-11-21T00:48:03;8.80;99.90
6956;DHT22;50345;51.136;16.886;2023-11-21T00:50:30;8.80;99.90
6956;DHT22;50345;51.136;16.886;2023-11-21T00:52:56;8.70;99.90
6956;DHT22;50345;51.136;16.886;2023-11-21T00:55:21;8.70;99.90
6956;DHT22;50345;51.136;16.886;2023-11-21T00:57:47;8.70;99.90
6956;DHT22;50345;51.136;16.886;2023-11-21T01:00:13;8.70;99.90
6956;DHT22;50345;51.136;16.886;2023-11-21T01:02:43;8.70;99.90
6956;DHT22;50345;51.136;16.886;2023-11-21T01:05:09;8.70;99.90
6956;DHT22;50345;51.136;16.886;2023-11-21T01:07:36;8.70;99.90
6956;DHT22;50345;51.136;16.886;2023-11-21T01:10:03;8.70;99.90
6956;DHT22;50345;51.136;16.886;2023-11-21T01:12:31;8.70;99.90
6956;DHT22;50345;51.136;16.886;2023-11-21T01:14:56;8.70;99.90
6956;DHT22;50345;51.136;16.886;2023-11-21T01:17:26;8.80;99.90
6956;DHT22;50345;51.136;16.886;2023-11-21T01:19:52;8.70;99.90
6956;DHT22;50345;51.136;16.886;2023-11-21T01:22:18;8.70;99.90
6956;DHT22;50345;51.136;16.886;2023-11-21T01:24:47;8.70;99.90
6956;DHT22;50345;51.136;16.886;2023-11-21T01:27:13;8.70;99.90
6956;DHT22;50345;51.136;16.886;2023-11-21T01:29:38;8.70;99.90
6956;DHT22;50345;51.136;16.886;2023-11-21T01:32:05;8.70;99.90
6956;DHT22;50345;51.136;16.886;2023-11-21T01:34:33;8.60;99.90
6956;DHT22;50345;51.136;16.886;2023-11-21T01:36:58;8.70;99.90
6956;DHT22;50345;51.136;16.886;2023-11-21T01:39:25;8.70;99.90
6956;DHT22;50345;51.136;16.886;2023-11-21T01:41:51;8.70;99.90
6956;DHT22;50345;51.136;16.886;2023-11-21T01:44:17;8.60;99.90
6956;DHT22;50345;51.136;16.886;2023-11-21T01:46:45;8.60;99.90
6956;DHT22;50345;51.136;16.886;2023-11-21T01:49:12;8.60;99.90
6956;DHT22;50345;51.136;16.886;2023-11-21T01:51:39;8.60;99.90
6956;DHT22;50345;51.136;16.886;2023-11-21T01:54:06;8.60;99.90
6956;DHT22;50345;51.136;16.886;2023-11-21T01:56:32;8.70;99.90
6956;DHT22;50345;51.136;16.886;2023-11-21T01:58:58;8.70;99.90
6956;DHT22;50345;51.136;16.886;2023-11-21T02:01:23;8.70;99.90
6956;DHT22;50345;51.136;16.886;2023-11-21T02:03:51;8.70;99.90
6956;DHT22;50345;51.136;16.886;2023-11-21T02:06:17;8.70;99.90
6956;DHT22;50345;51.136;16.886;2023-11-21T02:08:43;8.70;99.90
6956;DHT22;50345;51.136;16.886;2023-11-21T02:11:10;8.70;99.90
6956;DHT22;50345;51.136;16.886;2023-11-21T02:13:38;8.70;99.90
6956;DHT22;50345;51.136;16.886;2023-11-21T02:16:09;8.70;99.90
6956;DHT22;50345;51.136;16.886;2023-11-21T02:18:35;8.70;99.90
6956;DHT22;50345;51.136;16.886;2023-11-21T02:21:04;8.70;99.90
6956;DHT22;50345;51.136;16.886;2023-11-21T02:23:30;8.70;99.90
6956;DHT22;50345;51.136;16.886;2023-11-21T02:25:55;8.70;99.90
6956;DHT22;50345;51.136;16.886;2023-11-21T02:28:21;8.70;99.90
6956;DHT22;50345;51.136;16.886;2023-11-21T02:30:51;8.70;99.90
6956;DHT22;50345;51.136;16.886;2023-11-21T02:33:21;8.70;99.90
6956;DHT22;50345;51.136;16.886;2023-11-21T02:35:47;8.70;99.90
6956;DHT22;50345;51.136;16.886;2023-11-21T02:38:12;8.70;99.90
6956;DHT22;50345;51.136;16.886;2023-11-21T02:40:39;8.70;99.90
6956;DHT22;50345;51.136;16.886;2023-11-21T02:43:04;8.80;99.90
6956;DHT22;50345;51.136;16.886;2023-11-21T02:45:31;8.70;99.90
6956;DHT22;50345;51.136;16.886;2023-11-21T02:47:57;8.80;99.90
6956;DHT22;50345;51.136;16.886;2023-11-21T02:50:23;8.80;99.90
6956;DHT22;50345;51.136;16.886;2023-11-21T02:52:49;8.80;99.90
6956;DHT22;50345;51.136;16.886;2023-11-21T02:55:14;8.80;99.90
6956;DHT22;50345;51.136;16.886;2023-11-21T02:57:40;8.80;99.90
6956;DHT22;50345;51.136;16.886;2023-11-21T03:00:06;8.80;99.90
6956;DHT22;50345;51.136;16.886;2023-11-21T03:02:41;8.80;99.90
6956;DHT22;50345;51.136;16.886;2023-11-21T03:05:07;8.70;99.90
6956;DHT22;50345;51.136;16.886;2023-11-21T03:07:38;8.70;99.90
6956;DHT22;50345;51.136;16.886;2023-11-21T03:10:03;8.70;99.90
6956;DHT22;50345;51.136;16.886;2023-11-21T03:12:29;8.70;99.90
6956;DHT22;50345;51.136;16.886;2023-11-21T03:14:55;8.70;99.90
6956;DHT22;50345;51.136;16.886;2023-11-21T03:17:21;8.70;99.90
6956;DHT22;50345;51.136;16.886;2023-11-21T03:19:46;8.70;99.90
6956;DHT22;50345;51.136;16.886;2023-11-21T03:22:12;8.70;99.90
6956;DHT22;50345;51.136;16.886;2023-11-21T03:24:38;8.70;99.90
6956;DHT22;50345;51.136;16.886;2023-11-21T03:27:04;8.70;99.90
6956;DHT22;50345;51.136;16.886;2023-11-21T03:29:30;8.70;99.90
6956;DHT22;50345;51.136;16.886;2023-11-21T03:31:55;8.70;99.90
6956;DHT22;50345;51.136;16.886;2023-11-21T03:34:26;8.70;99.90
6956;DHT22;50345;51.136;16.886;2023-11-21T03:36:52;8.70;99.90
6956;DHT22;50345;51.136;16.886;2023-11-21T03:39:22;8.80;99.90
6956;DHT22;50345;51.136;16.886;2023-11-21T03:41:48;8.80;99.90
6956;DHT22;50345;51.136;16.886;2023-11-21T03:44:14;8.80;99.90
6956;DHT22;50345;51.136;16.886;2023-11-21T03:46:40;8.80;99.90
6956;DHT22;50345;51.136;16.886;2023-11-21T03:49:06;8.80;99.90
6956;DHT22;50345;51.136;16.886;2023-11-21T03:51:33;8.70;99.90
6956;DHT22;50345;51.136;16.886;2023-11-21T03:53:59;8.70;99.90
6956;DHT22;50345;51.136;16.886;2023-11-21T03:56:24;8.70;99.90
6956;DHT22;50345;51.136;16.886;2023-11-21T03:58:50;8.70;99.90
6956;DHT22;50345;51.136;16.886;2023-11-21T04:01:22;8.70;99.90
6956;DHT22;50345;51.136;16.886;2023-11-21T04:03:51;8.70;99.90
6956;DHT22;50345;51.136;16.886;2023-11-21T04:06:17;8.70;99.90
6956;DHT22;50345;51.136;16.886;2023-11-21T04:08:46;8.70;99.90
6956;DHT22;50345;51.136;16.886;2023-11-21T04:11:12;8.70;99.90
6956;DHT22;50345;51.136;16.886;2023-11-21T04:13:39;8.70;99.90
6956;DHT22;50345;51.136;16.886;2023-11-21T04:16:06;8.70;99.90
6956;DHT22;50345;51.136;16.886;2023-11-21T04:18:32;8.70;99.90
6956;DHT22;50345;51.136;16.886;2023-11-21T04:20:57;8.70;99.90
6956;DHT22;50345;51.136;16.886;2023-11-21T04:23:23;8.70;99.90
6956;DHT22;50345;51.136;16.886;2023-11-21T04:25:48;8.60;99.90
6956;DHT22;50345;51.136;16.886;2023-11-21T04:28:14;8.60;99.90
6956;DHT22;50345;51.136;16.886;2023-11-21T04:30:39;8.60;99.90
6956;DHT22;50345;51.136;16.886;2023-11-21T04:33:06;8.60;99.90
6956;DHT22;50345;51.136;16.886;2023-11-21T04:35:33;8.70;99.90
6956;DHT22;50345;51.136;16.886;2023-11-21T04:37:58;8.70;99.90
6956;DHT22;50345;51.136;16.886;2023-11-21T04:40:24;8.70;99.90
6956;DHT22;50345;51.136;16.886;2023-11-21T04:42:49;8.70;99.90
6956;DHT22;50345;51.136;16.886;2023-11-21T04:45:15;8.70;99.90
6956;DHT22;50345;51.136;16.886;2023-11-21T04:47:41;8.70;99.90
6956;DHT22;50345;51.136;16.886;2023-11-21T04:50:06;8.70;99.90
6956;DHT22;50345;51.136;16.886;2023-11-21T04:52:32;8.70;99.90
6956;DHT22;50345;51.136;16.886;2023-11-21T04:54:58;8.60;99.90
6956;DHT22;50345;51.136;16.886;2023-11-21T04:57:26;8.70;99.90
6956;DHT22;50345;51.136;16.886;2023-11-21T04:59:54;8.70;99.90
6956;DHT22;50345;51.136;16.886;2023-11-21T05:02:19;8.60;99.90
6956;DHT22;50345;51.136;16.886;2023-11-21T05:04:46;8.70;99.90
6956;DHT22;50345;51.136;16.886;2023-11-21T05:07:12;8.60;99.90
6956;DHT22;50345;51.136;16.886;2023-11-21T05:09:42;8.60;99.90
6956;DHT22;50345;51.136;16.886;2023-11-21T05:12:09;8.60;99.90
6956;DHT22;50345;51.136;16.886;2023-11-21T05:14:35;8.60;99.90
6956;DHT22;50345;51.136;16.886;2023-11-21T05:17:01;8.60;99.90
6956;DHT22;50345;51.136;16.886;2023-11-21T05:19:27;8.60;99.90
6956;DHT22;50345;51.136;16.886;2023-11-21T05:21:52;8.60;99.90
6956;DHT22;50345;51.136;16.886;2023-11-21T05:24:18;8.60;99.90
6956;DHT22;50345;51.136;16.886;2023-11-21T05:26:43;8.60;99.90
6956;DHT22;50345;51.136;16.886;2023-11-21T05:29:09;8.70;99.90
6956;DHT22;50345;51.136;16.886;2023-11-21T05:31:36;8.70;99.90
6956;DHT22;50345;51.136;16.886;2023-11-21T05:34:03;8.60;99.90
6956;DHT22;50345;51.136;16.886;2023-11-21T05:36:28;8.60;99.90
6956;DHT22;50345;51.136;16.886;2023-11-21T05:38:54;8.60;99.90
6956;DHT22;50345;51.136;16.886;2023-11-21T05:41:19;8.60;99.90
6956;DHT22;50345;51.136;16.886;2023-11-21T05:43:45;8.60;99.90
6956;DHT22;50345;51.136;16.886;2023-11-21T05:46:11;8.60;99.90
6956;DHT22;50345;51.136;16.886;2023-11-21T05:48:36;8.60;99.90
6956;DHT22;50345;51.136;16.886;2023-11-21T05:51:06;8.60;99.90
6956;DHT22;50345;51.136;16.886;2023-11-21T05:53:32;8.60;99.90
6956;DHT22;50345;51.136;16.886;2023-11-21T05:55:58;8.60;99.90
6956;DHT22;50345;51.136;16.886;2023-11-21T05:58:23;8.60;99.90
6956;DHT22;50345;51.136;16.886;2023-11-21T06:00:49;8.60;99.90
6956;DHT22;50345;51.136;16.886;2023-11-21T06:03:14;8.60;99.90
6956;DHT22;50345;51.136;16.886;2023-11-21T06:05:40;8.60;99.90
6956;DHT22;50345;51.136;16.886;2023-11-21T06:08:06;8.60;99.90
6956;DHT22;50345;51.136;16.886;2023-11-21T06:10:32;8.60;99.90
6956;DHT22;50345;51.136;16.886;2023-11-21T06:12:58;8.60;99.90
6956;DHT22;50345;51.136;16.886;2023-11-21T06:15:23;8.50;99.90
6956;DHT22;50345;51.136;16.886;2023-11-21T06:17:51;8.50;99.90
6956;DHT22;50345;51.136;16.886;2023-11-21T06:20:18;8.50;99.90
6956;DHT22;50345;51.136;16.886;2023-11-21T06:22:46;8.50;99.90
6956;DHT22;50345;51.136;16.886;2023-11-21T06:25:13;8.50;99.90
6956;DHT22;50345;51.136;16.886;2023-11-21T06:30:06;8.50;99.90
6956;DHT22;50345;51.136;16.886;2023-11-21T06:32:32;8.60;99.90
6956;DHT22;50345;51.136;16.886;2023-11-21T06:34:58;8.60;99.90
6956;DHT22;50345;51.136;16.886;2023-11-21T06:37:26;8.60;99.90
6956;DHT22;50345;51.136;16.886;2023-11-21T06:39:52;8.60;99.90
6956;DHT22;50345;51.136;16.886;2023-11-21T06:42:18;8.70;99.90
6956;DHT22;50345;51.136;16.886;2023-11-21T06:44:45;8.70;99.90
6956;DHT22;50345;51.136;16.886;2023-11-21T06:47:11;8.60;99.90
6956;DHT22;50345;51.136;16.886;2023-11-21T06:49:36;8.60;99.90
6956;DHT22;50345;51.136;16.886;2023-11-21T06:52:04;8.60;99.90
6956;DHT22;50345;51.136;16.886;2023-11-21T06:54:31;8.60;99.90
6956;DHT22;50345;51.136;16.886;2023-11-21T06:56:57;8.60;99.90
6956;DHT22;50345;51.136;16.886;2023-11-21T06:59:22;8.70;99.90
6956;DHT22;50345;51.136;16.886;2023-11-21T07:01:49;8.70;99.90
6956;DHT22;50345;51.136;16.886;2023-11-21T07:04:15;8.70;99.90
6956;DHT22;50345;51.136;16.886;2023-11-21T07:06:40;8.70;99.90
6956;DHT22;50345;51.136;16.886;2023-11-21T07:09:06;8.70;99.90
6956;DHT22;50345;51.136;16.886;2023-11-21T07:11:34;8.70;99.90
6956;DHT22;50345;51.136;16.886;2023-11-21T07:14:00;8.70;99.90
6956;DHT22;50345;51.136;16.886;2023-11-21T07:16:28;8.80;99.90
6956;DHT22;50345;51.136;16.886;2023-11-21T07:18:55;8.80;99.90
6956;DHT22;50345;51.136;16.886;2023-11-21T07:21:21;8.80;99.90
6956;DHT22;50345;51.136;16.886;2023-11-21T07:23:47;8.80;99.90
6956;DHT22;50345;51.136;16.886;2023-11-21T07:26:12;8.80;99.90
6956;DHT22;50345;51.136;16.886;2023-11-21T07:28:38;8.80;99.90
6956;DHT22;50345;51.136;16.886;2023-11-21T07:31:03;8.80;99.90
6956;DHT22;50345;51.136;16.886;2023-11-21T07:33:29;8.90;99.90
6956;DHT22;50345;51.136;16.886;2023-11-21T07:35:54;8.90;99.90
6956;DHT22;50345;51.136;16.886;2023-11-21T07:38:20;8.90;99.90
6956;DHT22;50345;51.136;16.886;2023-11-21T07:40:46;8.90;99.90
6956;DHT22;50345;51.136;16.886;2023-11-21T07:43:11;9.00;99.90
6956;DHT22;50345;51.136;16.886;2023-11-21T07:45:37;9.00;99.90
6956;DHT22;50345;51.136;16.886;2023-11-21T07:48:03;9.10;99.90
6956;DHT22;50345;51.136;16.886;2023-11-21T07:50:30;9.10;99.90
6956;DHT22;50345;51.136;16.886;2023-11-21T07:52:57;9.10;99.90
6956;DHT22;50345;51.136;16.886;2023-11-21T07:55:23;9.20;99.90
6956;DHT22;50345;51.136;16.886;2023-11-21T07:57:50;9.20;99.90
6956;DHT22;50345;51.136;16.886;2023-11-21T08:00:16;9.20;99.90
6956;DHT22;50345;51.136;16.886;2023-11-21T08:02:41;9.30;99.90
6956;DHT22;50345;51.136;16.886;2023-11-21T08:05:08;9.30;99.90
6956;DHT22;50345;51.136;16.886;2023-11-21T08:07:34;9.40;99.90
6956;DHT22;50345;51.136;16.886;2023-11-21T08:10:00;9.40;99.90
6956;DHT22;50345;51.136;16.886;2023-11-21T08:12:25;9.40;99.90
6956;DHT22;50345;51.136;16.886;2023-11-21T08:14:53;9.40;99.90
6956;DHT22;50345;51.136;16.886;2023-11-21T08:17:18;9.40;99.90
6956;DHT22;50345;51.136;16.886;2023-11-21T08:19:45;9.40;99.90
6956;DHT22;50345;51.136;16.886;2023-11-21T08:22:15;9.40;99.90
6956;DHT22;50345;51.136;16.886;2023-11-21T08:24:41;9.50;99.90
6956;DHT22;50345;51.136;16.886;2023-11-21T08:27:07;9.50;99.90
6956;DHT22;50345;51.136;16.886;2023-11-21T08:29:32;9.50;99.90
6956;DHT22;50345;51.136;16.886;2023-11-21T08:31:59;9.60;99.90
6956;DHT22;50345;51.136;16.886;2023-11-21T08:34:25;9.70;99.90
6956;DHT22;50345;51.136;16.886;2023-11-21T08:36:50;9.70;99.90
6956;DHT22;50345;51.136;16.886;2023-11-21T08:39:16;9.80;99.90
6956;DHT22;50345;51.136;16.886;2023-11-21T08:41:44;9.90;99.90
6956;DHT22;50345;51.136;16.886;2023-11-21T08:44:10;10.00;99.90
6956;DHT22;50345;51.136;16.886;2023-11-21T08:46:36;10.00;99.90
6956;DHT22;50345;51.136;16.886;2023-11-21T08:49:03;10.10;99.90
6956;DHT22;50345;51.136;16.886;2023-11-21T08:51:29;10.10;99.90
6956;DHT22;50345;51.136;16.886;2023-11-21T08:53:55;10.10;99.90
6956;DHT22;50345;51.136;16.886;2023-11-21T08:56:24;10.10;99.90
6956;DHT22;50345;51.136;16.886;2023-11-21T08:58:50;10.10;99.90
6956;DHT22;50345;51.136;16.886;2023-11-21T09:01:16;10.10;99.90
6956;DHT22;50345;51.136;16.886;2023-11-21T09:03:42;10.10;99.90
6956;DHT22;50345;51.136;16.886;2023-11-21T09:06:09;10.00;99.90
6956;DHT22;50345;51.136;16.886;2023-11-21T09:08:35;10.00;99.90
6956;DHT22;50345;51.136;16.886;2023-11-21T09:11:00;10.00;99.90
6956;DHT22;50345;51.136;16.886;2023-11-21T09:13:26;10.00;99.90
6956;DHT22;50345;51.136;16.886;2023-11-21T09:15:52;10.10;99.90
6956;DHT22;50345;51.136;16.886;2023-11-21T09:18:17;10.10;99.90
6956;DHT22;50345;51.136;16.886;2023-11-21T09:20:43;10.10;99.90
6956;DHT22;50345;51.136;16.886;2023-11-21T09:23:12;10.20;99.90
6956;DHT22;50345;51.136;16.886;2023-11-21T09:25:37;10.20;99.90
6956;DHT22;50345;51.136;16.886;2023-11-21T09:28:04;10.20;99.90
6956;DHT22;50345;51.136;16.886;2023-11-21T09:30:36;10.20;99.90
6956;DHT22;50345;51.136;16.886;2023-11-21T09:33:02;10.20;99.90
6956;DHT22;50345;51.136;16.886;2023-11-21T09:35:27;10.20;99.90
6956;DHT22;50345;51.136;16.886;2023-11-21T09:37:53;10.30;99.90
6956;DHT22;50345;51.136;16.886;2023-11-21T09:40:21;10.30;99.90
6956;DHT22;50345;51.136;16.886;2023-11-21T09:42:58;10.30;99.90
6956;DHT22;50345;51.136;16.886;2023-11-21T09:47:54;10.20;99.90
6956;DHT22;50345;51.136;16.886;2023-11-21T09:50:21;10.20;99.90
6956;DHT22;50345;51.136;16.886;2023-11-21T09:55:45;10.10;99.90
6956;DHT22;50345;51.136;16.886;2023-11-21T09:58:11;10.10;99.90
6956;DHT22;50345;51.136;16.886;2023-11-21T10:00:44;10.00;99.90
6956;DHT22;50345;51.136;16.886;2023-11-21T10:03:10;10.10;99.90
6956;DHT22;50345;51.136;16.886;2023-11-21T10:05:37;10.10;99.90
6956;DHT22;50345;51.136;16.886;2023-11-21T10:08:10;10.10;99.90
6956;DHT22;50345;51.136;16.886;2023-11-21T10:10:37;10.20;99.90
6956;DHT22;50345;51.136;16.886;2023-11-21T10:13:05;10.20;99.90
6956;DHT22;50345;51.136;16.886;2023-11-21T10:15:34;10.20;99.90
6956;DHT22;50345;51.136;16.886;2023-11-21T10:18:05;10.20;99.90
6956;DHT22;50345;51.136;16.886;2023-11-21T10:20:32;10.20;99.90
6956;DHT22;50345;51.136;16.886;2023-11-21T10:23:03;10.20;99.90
6956;DHT22;50345;51.136;16.886;2023-11-21T10:25:30;10.30;99.90
6956;DHT22;50345;51.136;16.886;2023-11-21T10:28:01;10.20;99.90
6956;DHT22;50345;51.136;16.886;2023-11-21T10:30:37;10.20;99.90
6956;DHT22;50345;51.136;16.886;2023-11-21T10:33:07;10.20;99.90
6956;DHT22;50345;51.136;16.886;2023-11-21T10:35:46;10.20;99.90
6956;DHT22;50345;51.136;16.886;2023-11-21T10:38:14;10.20;99.90
6956;DHT22;50345;51.136;16.886;2023-11-21T10:40:43;10.20;99.90
6956;DHT22;50345;51.136;16.886;2023-11-21T10:43:10;10.20;99.90
6956;DHT22;50345;51.136;16.886;2023-11-21T10:45:37;10.20;99.90
6956;DHT22;50345;51.136;16.886;2023-11-21T10:48:14;10.20;99.90
6956;DHT22;50345;51.136;16.886;2023-11-21T10:50:44;10.30;99.90
6956;DHT22;50345;51.136;16.886;2023-11-21T10:53:10;10.30;99.90
6956;DHT22;50345;51.136;16.886;2023-11-21T10:55:37;10.30;99.90
6956;DHT22;50345;51.136;16.886;2023-11-21T10:58:04;10.30;99.90
6956;DHT22;50345;51.136;16.886;2023-11-21T11:00:31;10.30;99.90
6956;DHT22;50345;51.136;16.886;2023-11-21T11:02:57;10.40;99.90
6956;DHT22;50345;51.136;16.886;2023-11-21T11:05:28;10.50;99.90
6956;DHT22;50345;51.136;16.886;2023-11-21T11:08:05;10.50;99.90
6956;DHT22;50345;51.136;16.886;2023-11-21T11:10:32;10.50;99.90
6956;DHT22;50345;51.136;16.886;2023-11-21T11:12:58;10.60;99.90
6956;DHT22;50345;51.136;16.886;2023-11-21T11:15:25;10.60;99.90
6956;DHT22;50345;51.136;16.886;2023-11-21T11:17:52;10.50;99.90
6956;DHT22;50345;51.136;16.886;2023-11-21T11:20:23;10.50;99.90
6956;DHT22;50345;51.136;16.886;2023-11-21T11:26:05;10.30;99.90
6956;DHT22;50345;51.136;16.886;2023-11-21T11:28:44;10.20;99.90
6956;DHT22;50345;51.136;16.886;2023-11-21T11:31:39;10.10;99.90
6956;DHT22;50345;51.136;16.886;2023-11-21T11:35:19;10.00;99.90
6956;DHT22;50345;51.136;16.886;2023-11-21T11:37:24;10.00;99.90
6956;DHT22;50345;51.136;16.886;2023-11-21T11:39:49;9.80;99.90
6956;DHT22;50345;51.136;16.886;2023-11-21T11:42:17;9.80;99.90
6956;DHT22;50345;51.136;16.886;2023-11-21T11:47:32;9.80;99.90
6956;DHT22;50345;51.136;16.886;2023-11-21T11:50:12;9.70;99.90
6956;DHT22;50345;51.136;16.886;2023-11-21T11:52:51;9.70;99.90
6956;DHT22;50345;51.136;16.886;2023-11-21T11:55:19;9.70;99.90
6956;DHT22;50345;51.136;16.886;2023-11-21T11:57:50;9.70;99.90
6956;DHT22;50345;51.136;16.886;2023-11-21T12:02:53;9.60;99.90
6956;DHT22;50345;51.136;16.886;2023-11-21T12:05:21;9.60;99.90
6956;DHT22;50345;51.136;16.886;2023-11-21T12:07:57;9.50;99.90
6956;DHT22;50345;51.136;16.886;2023-11-21T12:10:24;9.40;99.90
6956;DHT22;50345;51.136;16.886;2023-11-21T12:15:19;9.30;99.90
6956;DHT22;50345;51.136;16.886;2023-11-21T12:17:46;9.20;99.90
6956;DHT22;50345;51.136;16.886;2023-11-21T12:20:13;9.20;99.90
6956;DHT22;50345;51.136;16.886;2023-11-21T12:22:49;9.10;99.90
6956;DHT22;50345;51.136;16.886;2023-11-21T12:25:20;9.00;99.90
6956;DHT22;50345;51.136;16.886;2023-11-21T12:27:47;9.00;99.90
6956;DHT22;50345;51.136;16.886;2023-11-21T12:30:16;8.90;99.90
6956;DHT22;50345;51.136;16.886;2023-11-21T12:32:48;8.90;99.90
6956;DHT22;50345;51.136;16.886;2023-11-21T12:35:14;8.80;99.90
6956;DHT22;50345;51.136;16.886;2023-11-21T12:37:41;8.70;99.90
6956;DHT22;50345;51.136;16.886;2023-11-21T12:40:11;8.60;99.90
6956;DHT22;50345;51.136;16.886;2023-11-21T12:42:41;8.50;99.90
6956;DHT22;50345;51.136;16.886;2023-11-21T12:47:43;8.30;99.90
6956;DHT22;50345;51.136;16.886;2023-11-21T12:50:10;8.20;99.90
6956;DHT22;50345;51.136;16.886;2023-11-21T12:52:45;8.20;99.90
6956;DHT22;50345;51.136;16.886;2023-11-21T12:55:19;8.10;99.90
6956;DHT22;50345;51.136;16.886;2023-11-21T12:57:48;8.00;99.90
6956;DHT22;50345;51.136;16.886;2023-11-21T13:00:18;8.00;99.90
6956;DHT22;50345;51.136;16.886;2023-11-21T13:02:57;7.90;99.90
6956;DHT22;50345;51.136;16.886;2023-11-21T13:05:28;7.90;99.90
6956;DHT22;50345;51.136;16.886;2023-11-21T13:07:58;7.80;99.90
6956;DHT22;50345;51.136;16.886;2023-11-21T13:10:24;7.80;99.90
6956;DHT22;50345;51.136;16.886;2023-11-21T13:12:57;7.70;99.90
6956;DHT22;50345;51.136;16.886;2023-11-21T13:15:24;7.70;99.90
6956;DHT22;50345;51.136;16.886;2023-11-21T13:17:51;7.70;99.90
6956;DHT22;50345;51.136;16.886;2023-11-21T13:20:19;7.60;99.90
6956;DHT22;50345;51.136;16.886;2023-11-21T13:22:56;7.60;99.90
6956;DHT22;50345;51.136;16.886;2023-11-21T13:25:27;7.50;99.90
6956;DHT22;50345;51.136;16.886;2023-11-21T13:27:57;7.50;99.90
6956;DHT22;50345;51.136;16.886;2023-11-21T13:30:24;7.50;99.90
6956;DHT22;50345;51.136;16.886;2023-11-21T13:32:53;7.40;99.90
6956;DHT22;50345;51.136;16.886;2023-11-21T13:35:23;7.40;99.90
6956;DHT22;50345;51.136;16.886;2023-11-21T13:37:57;7.30;99.90
6956;DHT22;50345;51.136;16.886;2023-11-21T13:40:26;7.30;99.90
6956;DHT22;50345;51.136;16.886;2023-11-21T13:42:53;7.20;99.90
6956;DHT22;50345;51.136;16.886;2023-11-21T13:45:22;7.20;99.90
6956;DHT22;50345;51.136;16.886;2023-11-21T13:47:52;7.10;99.90
6956;DHT22;50345;51.136;16.886;2023-11-21T13:50:20;7.10;99.90
6956;DHT22;50345;51.136;16.886;2023-11-21T13:52:50;7.00;99.90
6956;DHT22;50345;51.136;16.886;2023-11-21T13:55:19;7.00;99.90
6956;DHT22;50345;51.136;16.886;2023-11-21T13:57:45;7.00;99.90
6956;DHT22;50345;51.136;16.886;2023-11-21T14:00:18;6.90;99.90
6956;DHT22;50345;51.136;16.886;2023-11-21T14:03:16;6.80;99.90
6956;DHT22;50345;51.136;16.886;2023-11-21T14:05:48;6.80;99.90
6956;DHT22;50345;51.136;16.886;2023-11-21T14:08:20;6.70;99.90
6956;DHT22;50345;51.136;16.886;2023-11-21T14:10:47;6.70;99.90
6956;DHT22;50345;51.136;16.886;2023-11-21T14:13:19;6.70;99.90
6956;DHT22;50345;51.136;16.886;2023-11-21T14:15:49;6.70;99.90
6956;DHT22;50345;51.136;16.886;2023-11-21T14:18:23;6.60;99.90
6956;DHT22;50345;51.136;16.886;2023-11-21T14:20:57;6.50;99.90
6956;DHT22;50345;51.136;16.886;2023-11-21T14:23:23;6.40;99.90
6956;DHT22;50345;51.136;16.886;2023-11-21T14:25:49;6.40;99.90
6956;DHT22;50345;51.136;16.886;2023-11-21T14:28:15;6.40;99.90
6956;DHT22;50345;51.136;16.886;2023-11-21T14:30:41;6.30;99.90
6956;DHT22;50345;51.136;16.886;2023-11-21T14:33:07;6.30;99.90
6956;DHT22;50345;51.136;16.886;2023-11-21T14:35:34;6.20;99.90
6956;DHT22;50345;51.136;16.886;2023-11-21T14:38:00;6.20;99.90
6956;DHT22;50345;51.136;16.886;2023-11-21T14:40:26;6.20;99.90
6956;DHT22;50345;51.136;16.886;2023-11-21T14:42:56;6.10;99.90
6956;DHT22;50345;51.136;16.886;2023-11-21T14:45:22;6.10;99.90
6956;DHT22;50345;51.136;16.886;2023-11-21T14:47:51;6.00;99.90
6956;DHT22;50345;51.136;16.886;2023-11-21T14:50:46;6.00;99.90
6956;DHT22;50345;51.136;16.886;2023-11-21T14:53:34;6.00;99.90
6956;DHT22;50345;51.136;16.886;2023-11-21T14:56:17;5.90;99.90
6956;DHT22;50345;51.136;16.886;2023-11-21T14:58:54;5.90;99.90
6956;DHT22;50345;51.136;16.886;2023-11-21T15:01:22;5.80;99.90
6956;DHT22;50345;51.136;16.886;2023-11-21T15:04:09;5.80;99.90
6956;DHT22;50345;51.136;16.886;2023-11-21T15:06:46;5.70;99.90
6956;DHT22;50345;51.136;16.886;2023-11-21T15:09:13;5.60;99.90
6956;DHT22;50345;51.136;16.886;2023-11-21T15:11:39;5.60;99.90
6956;DHT22;50345;51.136;16.886;2023-11-21T15:14:04;5.60;99.90
6956;DHT22;50345;51.136;16.886;2023-11-21T15:16:34;5.60;99.90
6956;DHT22;50345;51.136;16.886;2023-11-21T15:19:04;5.50;99.90
6956;DHT22;50345;51.136;16.886;2023-11-21T15:21:30;5.50;99.90
6956;DHT22;50345;51.136;16.886;2023-11-21T15:23:57;5.50;99.90
6956;DHT22;50345;51.136;16.886;2023-11-21T15:26:23;5.40;99.90
6956;DHT22;50345;51.136;16.886;2023-11-21T15:28:48;5.40;99.90
6956;DHT22;50345;51.136;16.886;2023-11-21T15:31:14;5.30;99.90
6956;DHT22;50345;51.136;16.886;2023-11-21T15:33:42;5.30;99.90
6956;DHT22;50345;51.136;16.886;2023-11-21T15:36:08;5.30;99.90
6956;DHT22;50345;51.136;16.886;2023-11-21T15:38:36;5.20;99.90
6956;DHT22;50345;51.136;16.886;2023-11-21T15:41:03;5.10;99.90
6956;DHT22;50345;51.136;16.886;2023-11-21T15:43:28;5.00;99.90
6956;DHT22;50345;51.136;16.886;2023-11-21T15:45:54;5.00;99.90
6956;DHT22;50345;51.136;16.886;2023-11-21T15:48:21;5.00;99.90
6956;DHT22;50345;51.136;16.886;2023-11-21T15:50:46;4.90;99.90
6956;DHT22;50345;51.136;16.886;2023-11-21T15:53:13;4.90;99.90
6956;DHT22;50345;51.136;16.886;2023-11-21T15:55:38;4.90;99.90
6956;DHT22;50345;51.136;16.886;2023-11-21T15:58:08;5.00;99.90
6956;DHT22;50345;51.136;16.886;2023-11-21T16:00:34;4.90;99.90
6956;DHT22;50345;51.136;16.886;2023-11-21T16:02:59;4.90;99.90
6956;DHT22;50345;51.136;16.886;2023-11-21T16:05:25;4.90;99.90
6956;DHT22;50345;51.136;16.886;2023-11-21T16:07:51;4.90;99.90